Time;durP1;ratioP1;P1;durP2;ratioP2;P2;SDS_P1;SDS_P2;PMS_P1;PMS_P2;Temp;Humidity;BMP_temperature;BMP_pressure;BME280_temperature;BME280_humidity;BME280_pressure;Samples;Min_cycle;Max_cycle;Signal;HPM_P1;HPM_P2
2022/04/22 00:01:16;;;;;;;16.88;5.28;;;;;;;;;;5036595;28;20382;-75
2022/04/22 00:03:42;;;;;;;10.57;4.95;;;;;;;;;;5036587;28;20025;-75
2022/04/22 00:06:08;;;;;;;17.13;5.20;;;;;;;;;;5036249;28;20034;-75
2022/04/22 00:08:34;;;;;;;15.60;4.85;;;;;;;;;;5036906;28;20032;-75
2022/04/22 00:13:45;;;;;;;14.55;5.57;;;;;;;;;;5035149;28;20122;-74
2022/04/22 00:16:11;;;;;;;15.15;5.78;;;;;;;;;;5034643;28;20049;-74
2022/04/22 00:18:38;;;;;;;15.45;5.32;;;;;;;;;;5034168;28;20437;-76
2022/04/22 00:21:04;;;;;;;19.63;5.68;;;;;;;;;;5034761;28;20033;-75
2022/04/22 00:23:29;;;;;;;14.82;5.38;;;;;;;;;;5035346;28;20098;-75
2022/04/22 00:25:56;;;;;;;18.58;5.55;;;;;;;;;;5040476;28;20443;-75
2022/04/22 00:28:22;;;;;;;14.60;5.43;;;;;;;;;;5038761;28;20035;-77
2022/04/22 00:30:48;;;;;;;17.73;5.65;;;;;;;;;;5037065;28;20064;-76
2022/04/22 00:33:14;;;;;;;14.07;5.32;;;;;;;;;;5035076;28;20025;-75
2022/04/22 00:35:40;;;;;;;17.40;5.65;;;;;;;;;;5033339;28;20026;-74
2022/04/22 00:38:06;;;;;;;12.63;5.40;;;;;;;;;;5034810;28;20025;-75
2022/04/22 00:40:32;;;;;;;12.77;5.07;;;;;;;;;;5034727;28;20030;-75
2022/04/22 00:42:59;;;;;;;13.38;5.18;;;;;;;;;;5034495;28;20060;-75
2022/04/22 00:45:25;;;;;;;13.00;5.45;;;;;;;;;;5034783;28;20144;-75
2022/04/22 00:47:51;;;;;;;14.90;5.55;;;;;;;;;;5034775;28;20046;-75
2022/04/22 00:50:17;;;;;;;14.45;6.03;;;;;;;;;;5035442;28;20053;-75
2022/04/22 00:52:43;;;;;;;16.10;5.82;;;;;;;;;;5036228;28;20394;-75
2022/04/22 00:55:09;;;;;;;14.27;5.85;;;;;;;;;;5041426;28;20005;-75
2022/04/22 00:57:35;;;;;;;14.93;5.50;;;;;;;;;;5043134;28;20021;-75
2022/04/22 01:00:02;;;;;;;18.38;5.55;;;;;;;;;;5044755;28;20336;-75
2022/04/22 01:02:28;;;;;;;17.83;5.70;;;;;;;;;;5053335;28;20030;-75
2022/04/22 01:10:23;;;;;;;20.55;5.38;;;;;;;;;;5037686;28;20040;-75
2022/04/22 01:12:49;;;;;;;15.18;5.55;;;;;;;;;;5043333;28;20045;-75
2022/04/22 01:15:15;;;;;;;17.70;5.35;;;;;;;;;;5028682;28;20049;-75
2022/04/22 01:17:41;;;;;;;15.70;5.07;;;;;;;;;;5044917;28;20089;-76
2022/04/22 01:20:07;;;;;;;13.00;5.13;;;;;;;;;;5035550;28;20025;-75
2022/04/22 01:22:33;;;;;;;18.25;5.03;;;;;;;;;;5033013;28;20120;-75
2022/04/22 01:25:00;;;;;;;12.30;5.10;;;;;;;;;;5031572;28;20486;-75
2022/04/22 01:27:29;;;;;;;15.80;5.30;;;;;;;;;;5053687;23;20410;-77
2022/04/22 01:29:55;;;;;;;10.93;5.38;;;;;;;;;;5033402;28;20079;-77
2022/04/22 01:32:21;;;;;;;14.60;5.68;;;;;;;;;;5033531;28;20030;-77
2022/04/22 01:34:47;;;;;;;15.13;5.70;;;;;;;;;;5038861;28;20032;-78
2022/04/22 01:37:13;;;;;;;11.57;4.70;;;;;;;;;;5052255;28;20025;-76
2022/04/22 01:39:39;;;;;;;18.52;5.88;;;;;;;;;;5042959;28;20028;-76
2022/04/22 01:42:06;;;;;;;16.80;5.32;;;;;;;;;;5036356;28;20024;-77
2022/04/22 01:44:32;;;;;;;12.75;4.90;;;;;;;;;;5034845;28;20018;-76
2022/04/22 01:46:58;;;;;;;14.13;5.05;;;;;;;;;;5032896;28;20033;-75
2022/04/22 01:49:24;;;;;;;15.75;5.72;;;;;;;;;;5035122;28;20025;-74
2022/04/22 01:51:50;;;;;;;14.05;5.38;;;;;;;;;;5037970;28;20030;-74
2022/04/22 01:54:17;;;;;;;16.40;5.38;;;;;;;;;;5035949;28;20021;-76
2022/04/22 01:56:43;;;;;;;13.80;4.72;;;;;;;;;;5038790;28;20026;-74
2022/04/22 01:59:09;;;;;;;15.90;5.07;;;;;;;;;;5040169;28;20355;-74
2022/04/22 02:01:35;;;;;;;27.45;5.57;;;;;;;;;;5039791;28;20490;-75
2022/04/22 02:04:01;;;;;;;15.50;5.60;;;;;;;;;;5036838;28;20359;-75
2022/04/22 02:06:28;;;;;;;18.63;6.00;;;;;;;;;;5032842;28;20045;-76
2022/04/22 02:08:54;;;;;;;14.77;4.93;;;;;;;;;;5032518;28;20601;-76
2022/04/22 02:11:19;;;;;;;15.27;5.38;;;;;;;;;;5032419;28;20056;-76
2022/04/22 02:13:46;;;;;;;12.35;4.82;;;;;;;;;;5032642;28;20394;-76
2022/04/22 02:16:12;;;;;;;16.38;4.82;;;;;;;;;;5031556;28;20022;-79
2022/04/22 02:18:39;;;;;;;15.88;4.90;;;;;;;;;;5033561;28;20029;-75
2022/04/22 02:21:06;;;;;;;14.60;5.00;;;;;;;;;;5033501;28;20431;-75
2022/04/22 02:23:32;;;;;;;12.88;4.75;;;;;;;;;;5038375;28;20045;-76
2022/04/22 02:25:58;;;;;;;12.00;4.55;;;;;;;;;;5046710;28;20086;-75
2022/04/22 02:28:34;;;;;;;14.18;4.97;;;;;;;;;;5048669;28;20034;-75
2022/04/22 02:31:00;;;;;;;14.65;5.18;;;;;;;;;;5049199;28;20025;-76
2022/04/22 02:33:26;;;;;;;13.30;4.30;;;;;;;;;;5050196;28;20391;-77
2022/04/22 02:35:52;;;;;;;15.10;4.70;;;;;;;;;;5041476;28;20032;-78
2022/04/22 02:38:18;;;;;;;14.88;5.30;;;;;;;;;;5030307;28;20386;-76
2022/04/22 02:46:13;;;;;;;16.58;4.47;;;;;;;;;;5033436;28;20125;-76
2022/04/22 02:48:39;;;;;;;15.80;4.65;;;;;;;;;;5035797;28;20112;-77
2022/04/22 02:51:05;;;;;;;12.85;4.55;;;;;;;;;;5035739;28;20033;-77
2022/04/22 02:53:31;;;;;;;13.63;5.20;;;;;;;;;;5039653;28;20052;-76
2022/04/22 02:55:58;;;;;;;16.15;5.28;;;;;;;;;;5038105;28;20083;-77
2022/04/22 02:58:24;;;;;;;21.60;5.57;;;;;;;;;;5038185;28;20075;-77
2022/04/22 03:00:51;;;;;;;14.27;4.97;;;;;;;;;;5036269;28;20033;-77
2022/04/22 03:03:20;;;;;;;20.73;5.65;;;;;;;;;;5036066;28;20037;-76
2022/04/22 03:05:46;;;;;;;16.25;5.32;;;;;;;;;;5036412;28;20107;-77
2022/04/22 03:08:12;;;;;;;14.38;5.65;;;;;;;;;;5038207;28;20494;-77
2022/04/22 03:10:37;;;;;;;14.57;5.07;;;;;;;;;;5042418;28;20025;-74
2022/04/22 03:13:04;;;;;;;15.20;5.28;;;;;;;;;;5043502;28;20080;-75
2022/04/22 03:15:31;;;;;;;18.45;6.78;;;;;;;;;;5042464;28;20053;-76
2022/04/22 03:17:56;;;;;;;18.98;5.80;;;;;;;;;;5035588;28;20033;-78
2022/04/22 03:20:22;;;;;;;14.73;5.60;;;;;;;;;;5035409;28;20030;-76
2022/04/22 03:22:48;;;;;;;17.35;5.45;;;;;;;;;;5035765;28;20382;-76
2022/04/22 03:25:16;;;;;;;16.17;4.93;;;;;;;;;;5034874;28;20053;-74
2022/04/22 03:27:42;;;;;;;13.85;5.03;;;;;;;;;;5033487;28;20029;-77
2022/04/22 03:30:08;;;;;;;15.30;4.90;;;;;;;;;;5034753;28;20033;-76
2022/04/22 03:32:34;;;;;;;19.00;5.18;;;;;;;;;;5034839;28;20044;-77
2022/04/22 03:35:00;;;;;;;24.25;6.30;;;;;;;;;;5033177;28;20025;-75
2022/04/22 03:37:26;;;;;;;17.52;5.72;;;;;;;;;;5033744;28;20029;-75
2022/04/22 03:39:52;;;;;;;15.70;5.70;;;;;;;;;;5034665;28;20108;-76
2022/04/22 03:42:18;;;;;;;16.55;5.93;;;;;;;;;;5033654;28;20462;-76
2022/04/22 03:44:44;;;;;;;17.42;5.72;;;29.50;43.40;;;;;;5034844;28;20025;-76
2022/04/22 03:47:09;;;;;;;21.30;5.95;;;8.50;99.90;;;;;;5034297;28;20026;-77
2022/04/22 03:49:35;;;;;;;19.35;5.63;;;7.90;99.90;;;;;;5034821;28;20388;-76
2022/04/22 03:52:01;;;;;;;19.92;5.65;;;7.90;99.90;;;;;;5033287;28;20018;-76
2022/04/22 03:54:26;;;;;;;18.55;5.30;;;7.90;99.90;;;;;;5034948;28;20390;-77
2022/04/22 03:59:36;;;;;;;16.10;5.87;;;7.80;99.90;;;;;;5034549;28;20080;-76
2022/04/22 04:02:03;;;;;;;24.13;6.63;;;7.90;99.90;;;;;;5033349;28;20025;-75
2022/04/22 04:04:29;;;;;;;17.25;6.78;;;7.90;99.90;;;;;;5034474;28;20025;-77
2022/04/22 04:06:54;;;;;;;13.82;6.07;;;7.90;99.90;;;;;;5034751;28;20104;-75
2022/04/22 04:17:38;;;;;;;20.77;6.30;;;7.90;99.90;;;;;;5034466;28;20071;-75
2022/04/22 04:25:33;;;;;;;16.25;6.32;;;7.90;99.90;;;;;;5036296;28;19913;-77
2022/04/22 04:27:59;;;;;;;19.67;6.32;;;7.90;99.90;;;;;;5035042;28;20045;-78
2022/04/22 04:30:25;;;;;;;16.67;6.47;;;7.90;99.90;;;;;;5034155;28;20024;-76
2022/04/22 04:32:51;;;;;;;20.85;6.30;;;7.90;99.90;;;;;;5034415;28;20025;-76
2022/04/22 04:35:16;;;;;;;20.92;6.78;;;8.00;99.90;;;;;;5034818;28;20064;-77
2022/04/22 04:37:42;;;;;;;29.42;6.55;;;8.00;99.90;;;;;;5034412;28;20029;-74
2022/04/22 04:40:09;;;;;;;16.08;6.13;;;7.90;99.90;;;;;;5034384;28;20555;-76
2022/04/22 04:42:35;;;;;;;15.60;6.18;;;8.00;99.90;;;;;;5034553;28;20068;-76
2022/04/22 04:45:01;;;;;;;19.48;6.53;;;8.00;99.90;;;;;;5035129;28;20034;-75
2022/04/22 04:47:26;;;;;;;20.23;6.30;;;8.00;99.90;;;;;;5034018;28;20056;-76
2022/04/22 04:49:52;;;;;;;18.85;6.38;;;8.00;99.90;;;;;;5034713;28;20029;-77
2022/04/22 04:52:18;;;;;;;21.20;6.38;;;8.00;99.90;;;;;;5034358;28;20022;-76
2022/04/22 04:54:46;;;;;;;13.90;6.38;;;8.00;99.90;;;;;;5034130;28;20025;-75
2022/04/22 04:57:11;;;;;;;19.60;6.43;;;8.10;99.90;;;;;;5034292;28;20018;-77
2022/04/22 04:59:37;;;;;;;20.80;6.80;;;8.10;99.90;;;;;;5035471;28;20039;-76
2022/04/22 05:02:02;;;;;;;25.88;6.30;;;8.10;99.90;;;;;;5038187;28;20067;-76
2022/04/22 05:04:28;;;;;;;19.25;6.95;;;8.20;99.90;;;;;;5038198;28;20030;-75
2022/04/22 05:06:53;;;;;;;19.05;6.88;;;8.20;99.90;;;;;;5040656;28;20033;-76
2022/04/22 05:09:19;;;;;;;21.05;7.05;;;8.30;99.90;;;;;;5040815;28;20030;-76
2022/04/22 05:11:45;;;;;;;29.15;12.15;;;8.30;99.90;;;;;;5037818;28;20018;-76
2022/04/22 05:14:11;;;;;;;18.95;7.55;;;8.30;99.90;;;;;;5035404;28;20061;-76
2022/04/22 05:16:36;;;;;;;14.85;7.35;;;8.40;99.90;;;;;;5034577;28;20079;-77
2022/04/22 05:19:02;;;;;;;21.90;7.20;;;8.40;99.90;;;;;;5035644;28;20064;-75
2022/04/22 05:21:28;;;;;;;15.68;6.68;;;8.50;99.90;;;;;;5032907;28;20029;-76
2022/04/22 05:23:54;;;;;;;17.80;5.70;;;8.50;99.90;;;;;;5039431;28;20034;-74
2022/04/22 05:26:24;;;;;;;16.52;5.75;;;8.60;99.90;;;;;;5036491;28;20108;-75
2022/04/22 05:28:49;;;;;;;17.63;5.50;;;8.60;99.90;;;;;;5033996;28;20029;-74
2022/04/22 05:33:59;;;;;;;11.77;5.40;;;8.70;99.90;;;;;;5035796;28;20577;-75
2022/04/22 05:36:24;;;;;;;15.57;5.57;;;8.80;99.90;;;;;;5037636;28;20033;-75
2022/04/22 05:38:52;;;;;;;17.83;5.68;;;8.80;99.90;;;;;;5039571;28;20059;-74
2022/04/22 05:41:18;;;;;;;18.77;6.07;;;8.90;99.90;;;;;;5043217;28;20346;-75
2022/04/22 05:43:44;;;;;;;14.80;4.80;;;8.90;99.90;;;;;;5047515;28;20021;-75
2022/04/22 05:46:10;;;;;;;18.27;5.85;;;9.00;99.90;;;;;;5050137;28;20238;-73
2022/04/22 05:48:35;;;;;;;14.98;5.80;;;9.10;99.90;;;;;;5047950;28;20037;-76
2022/04/22 05:51:01;;;;;;;20.00;5.78;;;9.10;99.90;;;;;;5046596;28;20049;-76
2022/04/22 05:53:26;;;;;;;26.52;6.25;;;9.10;99.90;;;;;;5036009;28;20033;-76
2022/04/22 05:55:52;;;;;;;13.35;5.25;;;9.20;99.90;;;;;;5036304;28;20021;-80
2022/04/22 05:58:17;;;;;;;18.35;6.10;;;9.20;99.90;;;;;;5039822;28;20107;-78
2022/04/22 06:00:43;;;;;;;20.35;5.88;;;9.30;99.90;;;;;;5037450;28;20025;-77
2022/04/22 06:03:09;;;;;;;16.33;5.15;;;9.30;99.90;;;;;;5038192;28;20056;-77
2022/04/22 06:05:34;;;;;;;19.75;5.50;;;9.30;99.90;;;;;;5040776;28;20550;-78
2022/04/22 06:10:51;;;;;;;15.63;4.57;;;9.40;99.90;;;;;;5045502;28;20069;-77
2022/04/22 06:13:16;;;;;;;19.30;4.97;;;9.40;99.90;;;;;;5051044;28;20014;-78
2022/04/22 06:15:42;;;;;;;17.25;4.82;;;9.50;99.90;;;;;;5050443;28;20056;-76
2022/04/22 06:18:08;;;;;;;22.67;5.25;;;9.60;99.90;;;;;;5050871;28;20033;-78
2022/04/22 06:20:33;;;;;;;15.15;5.00;;;9.60;99.90;;;;;;5051271;28;20025;-77
2022/04/22 06:23:00;;;;;;;13.77;5.00;;;9.60;99.90;;;;;;5051414;28;20025;-79
2022/04/22 06:25:26;;;;;;;23.85;5.93;;;9.70;99.90;;;;;;5046399;28;20026;-76
2022/04/22 06:27:52;;;;;;;24.67;4.93;;;9.80;99.90;;;;;;5046982;28;20091;-78
2022/04/22 06:30:19;;;;;;;18.25;4.63;;;9.80;99.90;;;;;;5044466;28;20025;-80
2022/04/22 06:32:47;;;;;;;16.60;4.85;;;9.90;99.90;;;;;;5046007;28;20056;-78
2022/04/22 06:35:14;;;;;;;20.85;4.97;;;9.80;99.90;;;;;;5046876;28;20089;-78
2022/04/22 06:37:44;;;;;;;16.52;4.65;;;9.90;99.90;;;;;;5050300;28;20026;-76
2022/04/22 06:45:48;;;;;;;14.45;5.32;;;10.20;99.90;;;;;;5051780;28;20044;-76
2022/04/22 06:48:29;;;;;;;16.55;5.65;;;10.30;99.90;;;;;;5050881;28;20036;-76
2022/04/22 06:50:56;;;;;;;13.80;4.43;;;10.30;99.90;;;;;;5055910;28;20041;-77
2022/04/22 06:53:23;;;;;;;17.50;5.25;;;10.40;99.90;;;;;;5052383;28;20020;-77
2022/04/22 06:55:49;;;;;;;19.80;5.15;;;10.40;99.90;;;;;;5054728;28;20052;-76
2022/04/22 06:58:16;;;;;;;23.77;5.50;;;10.50;99.90;;;;;;5051402;28;20018;-77
2022/04/22 07:00:43;;;;;;;11.60;4.28;;;10.50;99.90;;;;;;5046468;28;20088;-76
2022/04/22 07:03:10;;;;;;;15.05;4.22;;;10.70;99.90;;;;;;5053625;28;20025;-76
2022/04/22 07:05:37;;;;;;;20.70;5.38;;;10.80;99.90;;;;;;5046784;28;20175;-78
2022/04/22 07:08:06;;;;;;;12.85;4.63;;;10.90;99.90;;;;;;5050973;28;20131;-79
2022/04/22 07:10:35;;;;;;;17.15;5.43;;;10.70;99.90;;;;;;5048635;28;20018;-79
2022/04/22 07:13:01;;;;;;;21.17;4.60;;;10.90;99.90;;;;;;5045930;28;20021;-77
2022/04/22 07:15:28;;;;;;;20.77;4.95;;;11.00;99.90;;;;;;5041373;28;20036;-78
2022/04/22 07:17:54;;;;;;;17.30;4.53;;;11.10;99.90;;;;;;5041079;28;20064;-78
2022/04/22 07:20:20;;;;;;;18.10;4.38;;;11.10;99.90;;;;;;5042021;28;20025;-77
2022/04/22 07:22:46;;;;;;;17.70;4.47;;;11.20;99.90;;;;;;5043274;28;20081;-80
2022/04/22 07:25:14;;;;;;;15.27;4.38;;;11.30;99.90;;;;;;5049141;28;20072;-78
2022/04/22 07:27:41;;;;;;;12.32;4.00;;;11.40;99.90;;;;;;5072619;23;20048;-80
2022/04/22 07:30:09;;;;;;;15.15;4.07;;;11.50;99.90;;;;;;5040313;28;20033;-78
2022/04/22 07:32:39;;;;;;;21.65;4.93;;;11.50;99.90;;;;;;5039410;28;20065;-77
2022/04/22 07:35:05;;;;;;;21.05;4.53;;;11.50;99.90;;;;;;5039615;28;20028;-77
2022/04/22 07:37:31;;;;;;;13.35;4.32;;;11.60;99.90;;;;;;5040314;28;20018;-77
2022/04/22 07:39:57;;;;;;;16.05;4.20;;;11.60;99.90;;;;;;5041003;28;20052;-78
2022/04/22 07:42:22;;;;;;;11.20;3.60;;;11.70;99.90;;;;;;5040835;28;20025;-78
2022/04/22 07:47:35;;;;;;;13.73;4.07;;;11.90;99.90;;;;;;5041772;28;20418;-78
2022/04/22 07:50:05;;;;;;;16.70;4.47;;;11.90;99.90;;;;;;5039532;28;20026;-77
2022/04/22 07:52:32;;;;;;;15.05;4.40;;;11.90;99.90;;;;;;5038329;28;20013;-77
2022/04/22 07:54:57;;;;;;;14.73;4.97;;;12.00;99.90;;;;;;5038299;28;20021;-77
2022/04/22 07:57:23;;;;;;;16.85;5.13;;;12.10;99.90;;;;;;5043645;28;20028;-76
2022/04/22 07:59:49;;;;;;;19.55;5.00;;;12.10;99.90;;;;;;5047124;28;20036;-77
2022/04/22 08:02:16;;;;;;;23.98;5.13;;;12.20;99.90;;;;;;5043952;28;20037;-78
2022/04/22 08:04:41;;;;;;;16.58;4.40;;;12.20;99.90;;;;;;5046270;28;20018;-77
2022/04/22 08:07:08;;;;;;;23.00;4.50;;;12.30;99.90;;;;;;5048836;28;20052;-78
2022/04/22 08:09:34;;;;;;;21.23;5.13;;;12.50;99.90;;;;;;5050622;28;20029;-77
2022/04/22 08:12:00;;;;;;;16.00;4.60;;;12.50;99.90;;;;;;5049823;28;20036;-78
2022/04/22 08:14:27;;;;;;;20.55;5.03;;;12.50;99.90;;;;;;5051235;28;20048;-78
2022/04/22 08:16:55;;;;;;;15.02;4.32;;;12.50;99.90;;;;;;5047709;28;20036;-78
2022/04/22 08:19:21;;;;;;;19.33;4.05;;;12.60;99.90;;;;;;5048059;28;20371;-78
2022/04/22 08:21:46;;;;;;;23.70;4.18;;;12.70;99.90;;;;;;5049399;28;20081;-78
2022/04/22 08:24:12;;;;;;;18.45;4.90;;;12.80;99.90;;;;;;5055313;28;20025;-78
2022/04/22 08:26:38;;;;;;;13.57;4.38;;;12.90;99.90;;;;;;5053621;28;20040;-78
2022/04/22 08:29:04;;;;;;;14.65;4.75;;;13.00;99.90;;;;;;5049087;28;20037;-77
2022/04/22 08:31:29;;;;;;;16.85;4.90;;;13.00;99.90;;;;;;5048905;28;20071;-76
2022/04/22 08:33:57;;;;;;;16.30;5.05;;;13.10;99.90;;;;;;5050638;28;20048;-78
2022/04/22 08:36:29;;;;;;;24.90;5.43;;;13.20;99.90;;;;;;5048570;28;20021;-77
2022/04/22 08:38:57;;;;;;;18.90;4.70;;;13.30;99.90;;;;;;5052372;28;20029;-77
2022/04/22 08:41:23;;;;;;;35.88;11.55;;;13.40;99.90;;;;;;5051438;28;20005;-78
2022/04/22 08:43:52;;;;;;;14.95;4.68;;;13.40;99.90;;;;;;5043835;28;20033;-78
2022/04/22 08:51:49;;;;;;;13.65;4.15;;;13.70;99.90;;;;;;5038412;28;20036;-78
2022/04/22 08:54:16;;;;;;;13.68;4.43;;;13.80;99.90;;;;;;5039769;28;20029;-77
2022/04/22 08:56:43;;;;;;;23.90;4.85;;;13.80;99.90;;;;;;5036467;28;20030;-77
2022/04/22 08:59:09;;;;;;;17.27;4.97;;;13.90;99.90;;;;;;5042440;28;20025;-78
2022/04/22 09:01:37;;;;;;;21.00;5.05;;;14.00;99.90;;;;;;5042585;28;20135;-77
2022/04/22 09:04:05;;;;;;;18.45;4.78;;;14.00;99.90;;;;;;5037821;28;20328;-79
2022/04/22 09:06:32;;;;;;;16.70;4.18;;;14.00;99.90;;;;;;5037968;28;20041;-78
2022/04/22 09:08:58;;;;;;;16.75;4.72;;;14.10;99.90;;;;;;5042689;28;20043;-77
2022/04/22 09:11:24;;;;;;;14.50;5.22;;;14.20;99.90;;;;;;5038284;28;20021;-77
2022/04/22 09:13:50;;;;;;;16.92;4.35;;;14.30;99.90;;;;;;5037307;28;20029;-78
2022/04/22 09:16:22;;;;;;;18.80;5.30;;;14.40;99.90;;;;;;5034355;28;20056;-76
2022/04/22 09:18:57;;;;;;;14.25;4.50;;;14.50;99.90;;;;;;5037255;28;20033;-77
2022/04/22 09:21:24;;;;;;;18.35;4.65;;;14.60;99.90;;;;;;5037325;28;20025;-77
2022/04/22 09:23:50;;;;;;;18.17;4.95;;;14.50;99.90;;;;;;5035383;28;20160;-77
2022/04/22 09:26:22;;;;;;;15.77;4.95;;;14.60;99.90;;;;;;5035097;28;20497;-78
2022/04/22 09:29:10;;;;;;;18.98;5.35;;;14.60;99.90;;;;;;5048362;28;20079;-77
2022/04/22 09:31:46;;;;;;;21.48;4.90;;;14.70;99.90;;;;;;5057801;28;20033;-77
2022/04/22 09:34:11;;;;;;;15.55;4.80;;;14.90;99.90;;;;;;5047800;28;20034;-77
2022/04/22 09:44:56;;;;;;;17.63;5.65;;;15.50;99.90;;;;;;5038384;28;20068;-77
2022/04/22 09:47:25;;;;;;;17.20;5.13;;;15.70;99.90;;;;;;5036230;28;20060;-79
2022/04/22 09:49:50;;;;;;;27.35;6.55;;;15.80;99.90;;;;;;5035584;28;20096;-77
2022/04/22 09:52:27;;;;;;;13.70;5.10;;;15.80;99.90;;;;;;5035158;28;20021;-77
2022/04/22 09:54:59;;;;;;;19.27;6.78;;;15.80;99.90;;;;;;5044099;28;20033;-76
2022/04/22 09:57:25;;;;;;;19.52;6.35;;;15.80;99.90;;;;;;5035653;28;20028;-76
2022/04/22 09:59:54;;;;;;;26.70;7.25;;;15.80;99.90;;;;;;5034758;28;20044;-78
2022/04/22 10:02:23;;;;;;;15.55;5.65;;;15.60;99.90;;;;;;5037090;28;20382;-76
2022/04/22 10:04:50;;;;;;;22.40;6.22;;;15.60;99.90;;;;;;5035952;28;20026;-77
2022/04/22 10:07:17;;;;;;;17.10;5.57;;;15.50;99.90;;;;;;5037672;28;20364;-77
2022/04/22 10:09:48;;;;;;;17.15;5.63;;;15.60;99.90;;;;;;5035820;28;20026;-76
2022/04/22 10:12:17;;;;;;;18.92;5.50;;;15.60;99.90;;;;;;5036097;28;20018;-76
2022/04/22 10:14:43;;;;;;;23.45;6.50;;;15.50;99.90;;;;;;5034593;28;20080;-77
2022/04/22 10:17:10;;;;;;;25.58;6.00;;;15.30;99.90;;;;;;5035227;28;20045;-77
2022/04/22 10:19:36;;;;;;;20.90;5.57;;;15.30;99.90;;;;;;5035568;28;20048;-76
2022/04/22 10:22:03;;;;;;;19.10;6.03;;;15.20;99.90;;;;;;5042500;28;20037;-79
2022/04/22 10:24:33;;;;;;;18.98;5.38;;;15.30;99.90;;;;;;5035295;28;20351;-77
2022/04/22 10:27:02;;;;;;;19.50;6.03;;;15.40;99.90;;;;;;5037548;28;20478;-77
2022/04/22 10:29:30;;;;;;;24.05;5.72;;;15.60;99.90;;;;;;5042213;28;20056;-76
2022/04/22 10:31:56;;;;;;;18.58;5.57;;;15.60;99.90;;;;;;5044811;28;20017;-78
2022/04/22 10:34:43;;;;;;;19.45;5.60;;;15.50;99.90;;;;;;5041122;28;20034;-77
2022/04/22 10:37:25;;;;;;;21.85;5.63;;;15.40;99.90;;;;;;5036019;28;20457;-77
2022/04/22 10:39:52;;;;;;;19.02;5.80;;;15.10;99.90;;;;;;5034760;28;20033;-77
2022/04/22 10:42:17;;;;;;;18.35;5.50;;;14.90;99.90;;;;;;5035465;28;20033;-77
2022/04/22 10:47:58;;;;;;;22.23;5.93;;;14.60;99.90;;;;;;5036030;28;20044;-78
2022/04/22 10:50:35;;;;;;;23.23;5.55;;;14.40;99.90;;;;;;5014031;28;20133;-77
2022/04/22 10:53:09;;;;;;;19.40;6.07;;;14.30;99.90;;;;;;5035725;28;20402;-77
2022/04/22 10:55:41;;;;;;;30.48;5.90;;;14.10;99.90;;;;;;5040133;28;20017;-78
2022/04/22 10:58:13;;;;;;;18.90;6.13;;;13.90;99.90;;;;;;5042266;28;20048;-78
2022/04/22 11:00:42;;;;;;;17.88;6.28;;;13.90;99.90;;;;;;5035734;28;20033;-79
2022/04/22 11:03:19;;;;;;;25.10;6.32;;;13.90;99.90;;;;;;5042770;28;20036;-77
2022/04/22 11:05:58;;;;;;;18.58;4.97;;;13.90;99.90;;;;;;5042635;28;20093;-77
2022/04/22 11:08:30;;;;;;;21.92;7.25;;;14.10;99.90;;;;;;5047804;28;20029;-78
2022/04/22 11:10:55;;;;;;;22.48;5.43;;;14.20;99.90;;;;;;5049555;28;20025;-78
2022/04/22 11:13:50;;;;;;;17.00;6.15;;;14.50;99.90;;;;;;5044926;28;20424;-77
2022/04/22 11:16:22;;;;;;;19.75;6.05;;;14.70;99.90;;;;;;5043261;28;20021;-76
2022/04/22 11:19:19;;;;;;;22.45;5.85;;;14.90;99.90;;;;;;5042907;28;20034;-78
2022/04/22 11:21:52;;;;;;;15.82;5.70;;;14.80;99.90;;;;;;5043941;28;20104;-78
2022/04/22 11:24:24;;;;;;;29.37;8.00;;;14.70;99.90;;;;;;5040440;28;20040;-78
2022/04/22 11:26:50;;;;;;;33.30;8.73;;;14.60;99.90;;;;;;5040316;28;20029;-77
2022/04/22 11:29:16;;;;;;;19.02;6.18;;;14.50;99.90;;;;;;5038963;28;20032;-77
2022/04/22 11:32:03;;;;;;;22.25;6.70;;;14.40;99.90;;;;;;5038099;28;20032;-77
2022/04/22 11:35:13;;;;;;;17.38;5.93;;;14.30;99.90;;;;;;5042854;28;20036;-77
2022/04/22 11:37:39;;;;;;;18.40;6.60;;;14.30;99.90;;;;;;5049188;28;20013;-77
2022/04/22 11:40:08;;;;;;;26.05;7.13;;;14.30;99.90;;;;;;5052942;28;20032;-78
2022/04/22 11:42:43;;;;;;;23.00;6.43;;;14.30;99.90;;;;;;5055515;28;20036;-78
2022/04/22 11:45:11;;;;;;;18.70;5.93;;;14.30;99.90;;;;;;5051342;28;20030;-78
2022/04/22 11:47:37;;;;;;;26.10;7.07;;;14.30;99.90;;;;;;5052742;28;20048;-78
2022/04/22 11:50:04;;;;;;;16.27;5.97;;;14.50;99.90;;;;;;5054500;28;20283;-78
2022/04/22 11:52:29;;;;;;;19.27;5.68;;;14.80;99.90;;;;;;5048455;28;20018;-78
2022/04/22 11:55:03;;;;;;;22.40;6.30;;;15.10;99.90;;;;;;5039420;28;20095;-78
2022/04/22 11:57:37;;;;;;;17.42;5.97;;;15.40;99.90;;;;;;5040178;28;20053;-78
2022/04/22 12:05:41;;;;;;;24.93;5.97;;;16.50;99.90;;;;;;5038902;28;20035;-79
2022/04/22 12:08:10;;;;;;;26.67;7.38;;;16.70;99.90;;;;;;5042179;28;20268;-78
2022/04/22 12:10:35;;;;;;;16.80;5.82;;;16.90;99.90;;;;;;5040336;28;20037;-78
2022/04/22 12:13:02;;;;;;;19.77;6.43;;;;;;;;;;5039679;28;20017;-77
2022/04/22 12:15:29;;;;;;;19.92;6.15;;;17.90;99.90;;;;;;5039730;28;20037;-77
2022/04/22 12:17:54;;;;;;;22.52;5.97;;;18.60;99.90;;;;;;5045504;28;20105;-78
2022/04/22 12:20:20;;;;;;;19.63;6.55;;;19.50;99.90;;;;;;5054499;28;20033;-77
2022/04/22 12:22:49;;;;;;;17.95;5.53;;;20.10;99.90;;;;;;5051519;28;20033;-78
2022/04/22 12:25:19;;;;;;;15.43;6.25;;;20.60;99.90;;;;;;5037663;28;20486;-77
2022/04/22 12:28:13;;;;;;;18.10;5.55;;;21.20;99.90;;;;;;5037851;28;20037;-77
2022/04/22 12:30:40;;;;;;;15.23;5.65;;;21.60;99.90;;;;;;5037398;28;20029;-78
2022/04/22 12:33:08;;;;;;;14.43;5.60;;;22.20;99.90;;;;;;5036511;28;20184;-77
2022/04/22 12:35:33;;;;;;;13.60;5.88;;;21.90;99.90;;;;;;5037188;28;20104;-78
2022/04/22 12:38:05;;;;;;;19.67;5.60;;;22.10;99.90;;;;;;5036861;28;20045;-80
2022/04/22 12:40:43;;;;;;;13.93;5.90;;;22.20;98.90;;;;;;5037850;28;20028;-77
2022/04/22 12:43:22;;;;;;;17.55;6.93;;;21.70;98.40;;;;;;5038381;28;20052;-77
2022/04/22 12:54:20;;;;;;;;;;;22.00;97.60;;;;;;5041919;28;20095;-80
2022/04/22 12:56:55;;;;;;;16.83;6.05;;;22.30;96.70;;;;;;5046502;28;19905;-76
2022/04/22 12:59:21;;;;;;;19.75;5.68;;;22.60;96.20;;;;;;5040696;28;20033;-77
2022/04/22 13:01:49;;;;;;;18.13;5.95;;;23.00;95.80;;;;;;5036497;28;20049;-75
2022/04/22 13:04:23;;;;;;;19.60;6.05;;;23.20;94.00;;;;;;5036249;28;20386;-76
2022/04/22 13:06:49;;;;;;;14.68;5.00;;;23.90;93.10;;;;;;5037617;28;20025;-78
2022/04/22 13:09:17;;;;;;;18.05;5.78;;;24.20;92.10;;;;;;5040218;28;20033;-77
2022/04/22 13:11:43;;;;;;;21.17;5.70;;;24.80;91.60;;;;;;5039468;28;20029;-77
2022/04/22 13:14:11;;;;;;;15.45;5.97;;;25.20;89.90;;;;;;5042528;28;20105;-79
2022/04/22 13:16:37;;;;;;;17.15;5.57;;;25.60;87.50;;;;;;5043900;28;20052;-78
2022/04/22 13:19:04;;;;;;;21.08;5.55;;;26.00;83.50;;;;;;5041753;28;20301;-79
2022/04/22 13:21:30;;;;;;;15.68;5.35;;;26.50;79.30;;;;;;5039640;28;20490;-77
2022/04/22 13:23:56;;;;;;;23.58;5.60;;;26.60;77.70;;;;;;5041921;28;20044;-83
2022/04/22 13:26:22;;;;;;;13.77;4.55;;;26.80;75.30;;;;;;5039798;28;20036;-77
2022/04/22 13:28:48;;;;;;;14.20;4.95;;;26.90;73.70;;;;;;5039893;28;20037;-78
2022/04/22 13:31:15;;;;;;;12.65;5.10;;;26.90;71.40;;;;;;5038173;28;20474;-77
2022/04/22 13:33:41;;;;;;;15.82;4.63;;;26.90;70.50;;;;;;5038041;28;20026;-79
2022/04/22 13:36:09;;;;;;;12.32;4.80;;;27.40;70.20;;;;;;5038340;28;20026;-80
2022/04/22 13:38:37;;;;;;;16.13;5.07;;;;;;;;;;5038253;28;20025;-77
2022/04/22 13:41:04;;;;;;;16.05;4.45;;;;;;;;;;5037172;28;20108;-79
2022/04/22 13:43:30;;;;;;;14.65;4.43;;;;;;;;;;5038713;28;20018;-79
2022/04/22 13:54:14;;;;;;;13.15;4.32;;;;;;;;;;5036043;28;20120;-80
2022/04/22 13:56:40;;;;;;;15.88;4.30;;;;;;;;;;5036158;28;20486;-79
2022/04/22 13:59:06;;;;;;;17.90;4.60;;;;;;;;;;5035375;28;20029;-80
2022/04/22 14:01:31;;;;;;;15.27;4.60;;;;;;;;;;5035748;28;20026;-79
2022/04/22 14:03:57;;;;;;;13.02;4.22;;;28.10;69.00;;;;;;5035589;28;20037;-79
2022/04/22 14:06:23;;;;;;;15.02;4.68;;;23.30;69.40;;;;;;5036122;28;20029;-80
2022/04/22 14:08:49;;;;;;;13.75;4.85;;;;;;;;;;5035618;28;20086;-78
2022/04/22 14:11:15;;;;;;;14.75;5.38;;;;;;;;;;5036364;28;20033;-79
2022/04/22 14:13:41;;;;;;;14.88;4.68;;;;;;;;;;5037581;28;20049;-79
2022/04/22 14:16:07;;;;;;;18.48;4.97;;;;;;;;;;5037993;28;20044;-79
2022/04/22 14:18:35;;;;;;;14.88;5.15;;;;;;;;;;5036005;28;20033;-76
2022/04/22 14:21:01;;;;;;;17.95;5.38;;;23.20;70.60;;;;;;5038722;28;20021;-77
2022/04/22 14:23:27;;;;;;;17.30;5.80;;;20.50;79.20;;;;;;5037417;28;20029;-76
2022/04/22 14:25:56;;;;;;;17.85;6.13;;;;;;;;;;5036088;28;20513;-74
2022/04/22 14:28:25;;;;;;;15.07;5.75;;;19.80;82.00;;;;;;5036348;28;20090;-76
2022/04/22 14:30:52;;;;;;;23.02;8.50;;;18.90;87.60;;;;;;5035924;28;20455;-76
2022/04/22 14:33:18;;;;;;;17.17;6.40;;;;;;;;;;5036479;28;20029;-76
2022/04/22 14:35:44;;;;;;;16.60;6.35;;;;;;;;;;5034708;28;20021;-76
2022/04/22 14:38:11;;;;;;;20.85;7.63;;;;;;;;;;5033754;28;20104;-77